sensor_id;sensor_type;location;lat;lon;timestamp;P1;durP1;ratioP1;P2;durP2;ratioP2
7941;SDS011;4016;50.758;7.150;2023-10-19T00:04:00;8.00;;;7.20;;
7941;SDS011;4016;50.758;7.150;2023-10-19T00:09:01;7.77;;;6.87;;
7941;SDS011;4016;50.758;7.150;2023-10-19T00:14:01;9.97;;;7.47;;
7941;SDS011;4016;50.758;7.150;2023-10-19T00:19:03;9.63;;;7.93;;
7941;SDS011;4016;50.758;7.150;2023-10-19T00:24:03;9.37;;;7.37;;
7941;SDS011;4016;50.758;7.150;2023-10-19T00:29:05;7.83;;;7.03;;
7941;SDS011;4016;50.758;7.150;2023-10-19T00:34:23;7.77;;;6.97;;
7941;SDS011;4016;50.758;7.150;2023-10-19T00:39:25;10.60;;;9.50;;
7941;SDS011;4016;50.758;7.150;2023-10-19T00:44:27;10.67;;;9.03;;
7941;SDS011;4016;50.758;7.150;2023-10-19T00:49:56;8.03;;;7.07;;
7941;SDS011;4016;50.758;7.150;2023-10-19T00:55:02;7.87;;;7.07;;
7941;SDS011;4016;50.758;7.150;2023-10-19T01:00:04;8.93;;;7.07;;
7941;SDS011;4016;50.758;7.150;2023-10-19T01:05:22;8.60;;;7.70;;
7941;SDS011;4016;50.758;7.150;2023-10-19T01:10:22;9.83;;;8.83;;
7941;SDS011;4016;50.758;7.150;2023-10-19T01:15:23;9.77;;;8.87;;
7941;SDS011;4016;50.758;7.150;2023-10-19T01:20:30;9.17;;;8.30;;
7941;SDS011;4016;50.758;7.150;2023-10-19T01:25:31;8.43;;;7.63;;
7941;SDS011;4016;50.758;7.150;2023-10-19T01:30:36;10.07;;;9.17;;
7941;SDS011;4016;50.758;7.150;2023-10-19T01:35:38;8.43;;;7.63;;
7941;SDS011;4016;50.758;7.150;2023-10-19T01:40:58;7.97;;;7.17;;
7941;SDS011;4016;50.758;7.150;2023-10-19T01:46:13;8.30;;;7.47;;
7941;SDS011;4016;50.758;7.150;2023-10-19T01:51:26;8.67;;;7.77;;
7941;SDS011;4016;50.758;7.150;2023-10-19T01:56:28;9.73;;;8.83;;
7941;SDS011;4016;50.758;7.150;2023-10-19T02:01:29;8.97;;;8.03;;
7941;SDS011;4016;50.758;7.150;2023-10-19T02:06:32;8.00;;;7.20;;
7941;SDS011;4016;50.758;7.150;2023-10-19T02:11:37;9.00;;;7.47;;
7941;SDS011;4016;50.758;7.150;2023-10-19T02:16:38;8.17;;;6.77;;
7941;SDS011;4016;50.758;7.150;2023-10-19T02:21:38;7.07;;;6.37;;
7941;SDS011;4016;50.758;7.150;2023-10-19T02:26:40;8.40;;;7.50;;
7941;SDS011;4016;50.758;7.150;2023-10-19T02:31:42;7.33;;;6.63;;
7941;SDS011;4016;50.758;7.150;2023-10-19T02:36:43;7.50;;;6.70;;
7941;SDS011;4016;50.758;7.150;2023-10-19T02:41:46;8.03;;;6.60;;
7941;SDS011;4016;50.758;7.150;2023-10-19T02:51:51;8.00;;;6.00;;
7941;SDS011;4016;50.758;7.150;2023-10-19T02:56:53;6.03;;;5.43;;
7941;SDS011;4016;50.758;7.150;2023-10-19T03:01:57;6.17;;;5.57;;
7941;SDS011;4016;50.758;7.150;2023-10-19T03:07:07;7.40;;;6.27;;
7941;SDS011;4016;50.758;7.150;2023-10-19T03:12:07;6.43;;;5.70;;
7941;SDS011;4016;50.758;7.150;2023-10-19T03:17:14;6.90;;;5.80;;
7941;SDS011;4016;50.758;7.150;2023-10-19T03:22:15;9.40;;;7.17;;
7941;SDS011;4016;50.758;7.150;2023-10-19T03:27:17;8.17;;;6.13;;
7941;SDS011;4016;50.758;7.150;2023-10-19T03:32:24;6.67;;;5.83;;
7941;SDS011;4016;50.758;7.150;2023-10-19T03:37:35;6.20;;;5.60;;
7941;SDS011;4016;50.758;7.150;2023-10-19T03:42:36;7.40;;;6.10;;
7941;SDS011;4016;50.758;7.150;2023-10-19T03:47:44;7.20;;;6.53;;
7941;SDS011;4016;50.758;7.150;2023-10-19T03:52:44;8.70;;;7.17;;
7941;SDS011;4016;50.758;7.150;2023-10-19T03:57:45;7.63;;;6.60;;
7941;SDS011;4016;50.758;7.150;2023-10-19T04:02:54;8.10;;;7.07;;
7941;SDS011;4016;50.758;7.150;2023-10-19T04:07:55;7.47;;;6.70;;
7941;SDS011;4016;50.758;7.150;2023-10-19T04:12:57;6.83;;;6.23;;
7941;SDS011;4016;50.758;7.150;2023-10-19T04:18:01;6.50;;;5.90;;
7941;SDS011;4016;50.758;7.150;2023-10-19T04:23:11;7.27;;;6.10;;
7941;SDS011;4016;50.758;7.150;2023-10-19T04:28:11;7.17;;;6.47;;
7941;SDS011;4016;50.758;7.150;2023-10-19T04:33:13;7.23;;;6.33;;
7941;SDS011;4016;50.758;7.150;2023-10-19T04:38:16;9.20;;;8.07;;
7941;SDS011;4016;50.758;7.150;2023-10-19T04:43:18;10.00;;;9.00;;
7941;SDS011;4016;50.758;7.150;2023-10-19T04:48:18;10.47;;;9.37;;
7941;SDS011;4016;50.758;7.150;2023-10-19T04:53:19;9.07;;;8.17;;
7941;SDS011;4016;50.758;7.150;2023-10-19T04:58:19;9.77;;;8.87;;
7941;SDS011;4016;50.758;7.150;2023-10-19T05:03:20;11.40;;;10.20;;
7941;SDS011;4016;50.758;7.150;2023-10-19T05:08:20;10.93;;;9.93;;
7941;SDS011;4016;50.758;7.150;2023-10-19T05:13:24;11.73;;;10.63;;
7941;SDS011;4016;50.758;7.150;2023-10-19T05:18:26;10.87;;;9.80;;
7941;SDS011;4016;50.758;7.150;2023-10-19T05:23:27;11.33;;;9.63;;
7941;SDS011;4016;50.758;7.150;2023-10-19T05:28:28;12.63;;;10.43;;
7941;SDS011;4016;50.758;7.150;2023-10-19T05:33:28;11.10;;;9.93;;
7941;SDS011;4016;50.758;7.150;2023-10-19T05:38:29;11.07;;;10.07;;
7941;SDS011;4016;50.758;7.150;2023-10-19T05:43:31;10.50;;;9.50;;
7941;SDS011;4016;50.758;7.150;2023-10-19T05:48:33;10.00;;;9.10;;
7941;SDS011;4016;50.758;7.150;2023-10-19T05:53:33;9.37;;;8.30;;
7941;SDS011;4016;50.758;7.150;2023-10-19T05:58:34;9.30;;;8.33;;
7941;SDS011;4016;50.758;7.150;2023-10-19T06:03:34;8.13;;;7.37;;
7941;SDS011;4016;50.758;7.150;2023-10-19T06:08:35;7.90;;;7.10;;
7941;SDS011;4016;50.758;7.150;2023-10-19T06:13:36;8.03;;;7.33;;
7941;SDS011;4016;50.758;7.150;2023-10-19T06:18:36;8.50;;;7.70;;
7941;SDS011;4016;50.758;7.150;2023-10-19T06:23:38;8.43;;;7.47;;
7941;SDS011;4016;50.758;7.150;2023-10-19T06:28:41;8.90;;;8.00;;
7941;SDS011;4016;50.758;7.150;2023-10-19T06:33:41;10.23;;;9.23;;
7941;SDS011;4016;50.758;7.150;2023-10-19T06:38:42;10.07;;;8.87;;
7941;SDS011;4016;50.758;7.150;2023-10-19T06:43:42;11.40;;;9.30;;
7941;SDS011;4016;50.758;7.150;2023-10-19T06:48:43;9.73;;;8.83;;
7941;SDS011;4016;50.758;7.150;2023-10-19T06:53:43;11.83;;;10.10;;
7941;SDS011;4016;50.758;7.150;2023-10-19T06:58:44;10.73;;;9.67;;
7941;SDS011;4016;50.758;7.150;2023-10-19T07:03:45;11.47;;;10.27;;
7941;SDS011;4016;50.758;7.150;2023-10-19T07:08:45;11.13;;;10.03;;
7941;SDS011;4016;50.758;7.150;2023-10-19T07:13:46;11.93;;;9.83;;
7941;SDS011;4016;50.758;7.150;2023-10-19T07:18:46;10.60;;;9.30;;
7941;SDS011;4016;50.758;7.150;2023-10-19T07:23:47;11.53;;;9.73;;
7941;SDS011;4016;50.758;7.150;2023-10-19T07:28:49;12.03;;;9.50;;
7941;SDS011;4016;50.758;7.150;2023-10-19T07:33:50;12.77;;;11.57;;
7941;SDS011;4016;50.758;7.150;2023-10-19T07:38:50;14.23;;;12.73;;
7941;SDS011;4016;50.758;7.150;2023-10-19T07:43:51;12.63;;;11.43;;
7941;SDS011;4016;50.758;7.150;2023-10-19T07:48:52;12.60;;;11.17;;
7941;SDS011;4016;50.758;7.150;2023-10-19T07:53:52;11.83;;;10.63;;
7941;SDS011;4016;50.758;7.150;2023-10-19T07:58:53;12.70;;;10.70;;
7941;SDS011;4016;50.758;7.150;2023-10-19T08:03:54;12.57;;;11.27;;
7941;SDS011;4016;50.758;7.150;2023-10-19T08:08:54;14.40;;;12.93;;
7941;SDS011;4016;50.758;7.150;2023-10-19T08:13:55;15.00;;;13.40;;
7941;SDS011;4016;50.758;7.150;2023-10-19T08:18:56;15.60;;;14.17;;
7941;SDS011;4016;50.758;7.150;2023-10-19T08:23:57;15.37;;;13.97;;
7941;SDS011;4016;50.758;7.150;2023-10-19T08:28:57;11.37;;;10.17;;
7941;SDS011;4016;50.758;7.150;2023-10-19T08:33:58;9.23;;;6.30;;
7941;SDS011;4016;50.758;7.150;2023-10-19T08:38:59;6.97;;;5.10;;
7941;SDS011;4016;50.758;7.150;2023-10-19T08:44:05;8.90;;;4.57;;
7941;SDS011;4016;50.758;7.150;2023-10-19T08:49:15;9.90;;;4.50;;
7941;SDS011;4016;50.758;7.150;2023-10-19T08:54:16;4.97;;;3.50;;
7941;SDS011;4016;50.758;7.150;2023-10-19T08:59:16;3.93;;;3.40;;
7941;SDS011;4016;50.758;7.150;2023-10-19T09:04:17;4.30;;;3.20;;
7941;SDS011;4016;50.758;7.150;2023-10-19T09:09:17;5.60;;;3.10;;
7941;SDS011;4016;50.758;7.150;2023-10-19T09:14:52;3.10;;;2.80;;
7941;SDS011;4016;50.758;7.150;2023-10-19T09:19:46;6.50;;;3.03;;
7941;SDS011;4016;50.758;7.150;2023-10-19T09:24:51;6.40;;;3.10;;
7941;SDS011;4016;50.758;7.150;2023-10-19T09:29:53;4.00;;;3.07;;
7941;SDS011;4016;50.758;7.150;2023-10-19T09:34:53;4.75;;;3.42;;
7941;SDS011;4016;50.758;7.150;2023-10-19T09:39:55;6.85;;;3.17;;
7941;SDS011;4016;50.758;7.150;2023-10-19T09:44:58;5.73;;;3.60;;
7941;SDS011;4016;50.758;7.150;2023-10-19T09:50:05;5.40;;;3.60;;
7941;SDS011;4016;50.758;7.150;2023-10-19T09:55:07;6.22;;;3.22;;
7941;SDS011;4016;50.758;7.150;2023-10-19T10:00:25;3.28;;;2.70;;
7941;SDS011;4016;50.758;7.150;2023-10-19T10:10:37;3.63;;;2.95;;
7941;SDS011;4016;50.758;7.150;2023-10-19T10:15:42;4.32;;;2.97;;
7941;SDS011;4016;50.758;7.150;2023-10-19T10:20:43;4.10;;;2.95;;
7941;SDS011;4016;50.758;7.150;2023-10-19T10:25:45;3.67;;;2.60;;
7941;SDS011;4016;50.758;7.150;2023-10-19T10:31:30;4.32;;;2.80;;
7941;SDS011;4016;50.758;7.150;2023-10-19T10:36:21;3.15;;;2.65;;
7941;SDS011;4016;50.758;7.150;2023-10-19T10:41:22;5.13;;;3.05;;
7941;SDS011;4016;50.758;7.150;2023-10-19T10:46:31;5.82;;;3.33;;
7941;SDS011;4016;50.758;7.150;2023-10-19T10:51:32;4.47;;;3.10;;
7941;SDS011;4016;50.758;7.150;2023-10-19T10:56:39;3.75;;;2.88;;
7941;SDS011;4016;50.758;7.150;2023-10-19T11:01:40;5.47;;;3.30;;
7941;SDS011;4016;50.758;7.150;2023-10-19T11:06:52;4.88;;;2.90;;
7941;SDS011;4016;50.758;7.150;2023-10-19T11:11:56;4.82;;;3.38;;
7941;SDS011;4016;50.758;7.150;2023-10-19T11:17:11;6.50;;;3.70;;
7941;SDS011;4016;50.758;7.150;2023-10-19T11:22:12;4.90;;;3.70;;
7941;SDS011;4016;50.758;7.150;2023-10-19T11:27:13;4.05;;;2.80;;
7941;SDS011;4016;50.758;7.150;2023-10-19T11:32:26;6.18;;;2.95;;
7941;SDS011;4016;50.758;7.150;2023-10-19T11:37:50;3.58;;;2.55;;
7941;SDS011;4016;50.758;7.150;2023-10-19T11:42:53;10.07;;;3.30;;
7941;SDS011;4016;50.758;7.150;2023-10-19T11:47:58;4.70;;;2.88;;
7941;SDS011;4016;50.758;7.150;2023-10-19T11:52:59;5.68;;;3.13;;
7941;SDS011;4016;50.758;7.150;2023-10-19T11:58:00;6.65;;;2.85;;
7941;SDS011;4016;50.758;7.150;2023-10-19T12:03:00;4.88;;;2.50;;
7941;SDS011;4016;50.758;7.150;2023-10-19T12:08:00;5.07;;;2.90;;
7941;SDS011;4016;50.758;7.150;2023-10-19T12:13:02;3.40;;;2.90;;
7941;SDS011;4016;50.758;7.150;2023-10-19T12:18:03;2.60;;;2.35;;
7941;SDS011;4016;50.758;7.150;2023-10-19T12:23:05;3.88;;;2.65;;
7941;SDS011;4016;50.758;7.150;2023-10-19T12:28:05;7.40;;;3.10;;
7941;SDS011;4016;50.758;7.150;2023-10-19T12:33:07;4.68;;;3.38;;
7941;SDS011;4016;50.758;7.150;2023-10-19T12:38:14;5.38;;;3.08;;
7941;SDS011;4016;50.758;7.150;2023-10-19T12:43:18;5.35;;;3.72;;
7941;SDS011;4016;50.758;7.150;2023-10-19T12:48:25;7.53;;;4.30;;
7941;SDS011;4016;50.758;7.150;2023-10-19T12:53:33;6.43;;;4.10;;
7941;SDS011;4016;50.758;7.150;2023-10-19T12:58:34;6.90;;;4.32;;
7941;SDS011;4016;50.758;7.150;2023-10-19T13:03:35;5.95;;;4.30;;
7941;SDS011;4016;50.758;7.150;2023-10-19T13:08:38;8.25;;;4.80;;
7941;SDS011;4016;50.758;7.150;2023-10-19T13:13:40;7.07;;;4.50;;
7941;SDS011;4016;50.758;7.150;2023-10-19T13:18:41;7.72;;;5.05;;
7941;SDS011;4016;50.758;7.150;2023-10-19T13:23:41;6.60;;;4.55;;
7941;SDS011;4016;50.758;7.150;2023-10-19T13:28:46;7.60;;;4.65;;
7941;SDS011;4016;50.758;7.150;2023-10-19T13:33:52;6.13;;;4.50;;
7941;SDS011;4016;50.758;7.150;2023-10-19T13:38:54;5.45;;;4.90;;
7941;SDS011;4016;50.758;7.150;2023-10-19T13:43:55;6.47;;;4.70;;
7941;SDS011;4016;50.758;7.150;2023-10-19T13:48:55;5.65;;;4.10;;
7941;SDS011;4016;50.758;7.150;2023-10-19T13:53:55;3.40;;;3.10;;
7941;SDS011;4016;50.758;7.150;2023-10-19T13:58:56;4.53;;;3.13;;
7941;SDS011;4016;50.758;7.150;2023-10-19T14:03:57;3.85;;;3.10;;
7941;SDS011;4016;50.758;7.150;2023-10-19T14:08:57;7.70;;;3.50;;
7941;SDS011;4016;50.758;7.150;2023-10-19T14:13:58;5.22;;;3.10;;
7941;SDS011;4016;50.758;7.150;2023-10-19T14:18:59;4.40;;;3.50;;
7941;SDS011;4016;50.758;7.150;2023-10-19T14:24:00;8.05;;;3.40;;
7941;SDS011;4016;50.758;7.150;2023-10-19T14:29:00;6.25;;;4.13;;
7941;SDS011;4016;50.758;7.150;2023-10-19T14:34:01;5.75;;;3.88;;
7941;SDS011;4016;50.758;7.150;2023-10-19T14:39:02;5.55;;;4.07;;
7941;SDS011;4016;50.758;7.150;2023-10-19T14:44:03;4.72;;;4.25;;
7941;SDS011;4016;50.758;7.150;2023-10-19T14:49:06;5.95;;;5.00;;
7941;SDS011;4016;50.758;7.150;2023-10-19T14:54:06;5.82;;;5.28;;
7941;SDS011;4016;50.758;7.150;2023-10-19T14:59:07;8.98;;;4.85;;
7941;SDS011;4016;50.758;7.150;2023-10-19T15:04:07;5.32;;;4.78;;
7941;SDS011;4016;50.758;7.150;2023-10-19T15:09:08;6.28;;;5.32;;
7941;SDS011;4016;50.758;7.150;2023-10-19T15:14:14;6.68;;;5.70;;
7941;SDS011;4016;50.758;7.150;2023-10-19T15:19:16;5.45;;;4.95;;
7941;SDS011;4016;50.758;7.150;2023-10-19T15:24:18;8.52;;;5.65;;
7941;SDS011;4016;50.758;7.150;2023-10-19T15:29:18;6.35;;;5.63;;
7941;SDS011;4016;50.758;7.150;2023-10-19T15:34:19;5.78;;;5.22;;
7941;SDS011;4016;50.758;7.150;2023-10-19T15:39:20;5.35;;;4.82;;
7941;SDS011;4016;50.758;7.150;2023-10-19T15:44:23;5.47;;;4.78;;
7941;SDS011;4016;50.758;7.150;2023-10-19T15:49:23;5.70;;;4.63;;
7941;SDS011;4016;50.758;7.150;2023-10-19T15:54:24;6.03;;;4.40;;
7941;SDS011;4016;50.758;7.150;2023-10-19T15:59:24;5.60;;;5.03;;
7941;SDS011;4016;50.758;7.150;2023-10-19T16:04:25;5.18;;;4.68;;
7941;SDS011;4016;50.758;7.150;2023-10-19T16:09:25;7.53;;;5.03;;
7941;SDS011;4016;50.758;7.150;2023-10-19T16:14:26;6.53;;;5.13;;
7941;SDS011;4016;50.758;7.150;2023-10-19T16:19:26;5.55;;;4.97;;
7941;SDS011;4016;50.758;7.150;2023-10-19T16:24:27;6.43;;;5.30;;
7941;SDS011;4016;50.758;7.150;2023-10-19T16:29:29;5.55;;;4.75;;
7941;SDS011;4016;50.758;7.150;2023-10-19T16:34:29;7.22;;;5.43;;
7941;SDS011;4016;50.758;7.150;2023-10-19T16:39:30;5.67;;;4.80;;
7941;SDS011;4016;50.758;7.150;2023-10-19T16:44:31;6.80;;;5.23;;
7941;SDS011;4016;50.758;7.150;2023-10-19T16:49:31;5.30;;;4.77;;
7941;SDS011;4016;50.758;7.150;2023-10-19T16:54:35;5.90;;;4.93;;
7941;SDS011;4016;50.758;7.150;2023-10-19T16:59:35;5.73;;;5.10;;
7941;SDS011;4016;50.758;7.150;2023-10-19T17:04:35;7.40;;;4.83;;
7941;SDS011;4016;50.758;7.150;2023-10-19T17:09:36;6.93;;;4.70;;
7941;SDS011;4016;50.758;7.150;2023-10-19T17:14:37;6.07;;;5.10;;
7941;SDS011;4016;50.758;7.150;2023-10-19T17:19:39;6.03;;;5.37;;
7941;SDS011;4016;50.758;7.150;2023-10-19T17:24:40;6.37;;;5.77;;
7941;SDS011;4016;50.758;7.150;2023-10-19T17:29:40;6.27;;;5.33;;
7941;SDS011;4016;50.758;7.150;2023-10-19T17:34:42;6.13;;;5.50;;
7941;SDS011;4016;50.758;7.150;2023-10-19T17:39:42;6.87;;;5.50;;
7941;SDS011;4016;50.758;7.150;2023-10-19T17:44:43;5.80;;;4.90;;
7941;SDS011;4016;50.758;7.150;2023-10-19T17:49:44;6.80;;;5.43;;
7941;SDS011;4016;50.758;7.150;2023-10-19T17:54:44;6.00;;;5.40;;
7941;SDS011;4016;50.758;7.150;2023-10-19T17:59:44;7.10;;;6.40;;
7941;SDS011;4016;50.758;7.150;2023-10-19T18:04:45;6.23;;;5.53;;
7941;SDS011;4016;50.758;7.150;2023-10-19T18:09:49;6.17;;;5.53;;
7941;SDS011;4016;50.758;7.150;2023-10-19T18:14:49;5.83;;;5.33;;
7941;SDS011;4016;50.758;7.150;2023-10-19T18:19:51;6.10;;;5.50;;
7941;SDS011;4016;50.758;7.150;2023-10-19T18:24:51;7.57;;;6.67;;
7941;SDS011;4016;50.758;7.150;2023-10-19T18:29:52;7.63;;;6.57;;
7941;SDS011;4016;50.758;7.150;2023-10-19T18:34:53;7.37;;;6.50;;
7941;SDS011;4016;50.758;7.150;2023-10-19T18:39:53;6.33;;;5.73;;
7941;SDS011;4016;50.758;7.150;2023-10-19T18:44:53;7.60;;;6.80;;
7941;SDS011;4016;50.758;7.150;2023-10-19T18:49:54;8.57;;;6.80;;
7941;SDS011;4016;50.758;7.150;2023-10-19T18:54:58;7.13;;;6.43;;
7941;SDS011;4016;50.758;7.150;2023-10-19T19:00:00;6.70;;;5.90;;
7941;SDS011;4016;50.758;7.150;2023-10-19T19:05:01;8.40;;;6.50;;
7941;SDS011;4016;50.758;7.150;2023-10-19T19:10:01;6.57;;;5.97;;
7941;SDS011;4016;50.758;7.150;2023-10-19T19:15:03;8.63;;;6.20;;
7941;SDS011;4016;50.758;7.150;2023-10-19T19:20:04;7.77;;;6.13;;
7941;SDS011;4016;50.758;7.150;2023-10-19T19:25:06;7.63;;;6.37;;
7941;SDS011;4016;50.758;7.150;2023-10-19T19:30:08;7.63;;;5.80;;
7941;SDS011;4016;50.758;7.150;2023-10-19T19:35:10;7.07;;;6.37;;
7941;SDS011;4016;50.758;7.150;2023-10-19T19:40:11;7.33;;;6.33;;
7941;SDS011;4016;50.758;7.150;2023-10-19T19:45:12;6.97;;;6.13;;
7941;SDS011;4016;50.758;7.150;2023-10-19T19:50:14;8.87;;;6.40;;
7941;SDS011;4016;50.758;7.150;2023-10-19T19:55:14;7.30;;;6.20;;
7941;SDS011;4016;50.758;7.150;2023-10-19T20:00:15;7.67;;;6.87;;
7941;SDS011;4016;50.758;7.150;2023-10-19T20:05:16;7.63;;;6.83;;
7941;SDS011;4016;50.758;7.150;2023-10-19T20:10:17;7.70;;;6.73;;
7941;SDS011;4016;50.758;7.150;2023-10-19T20:15:17;7.03;;;6.23;;
7941;SDS011;4016;50.758;7.150;2023-10-19T20:20:18;9.93;;;6.60;;
7941;SDS011;4016;50.758;7.150;2023-10-19T20:25:23;9.07;;;7.17;;
7941;SDS011;4016;50.758;7.150;2023-10-19T20:30:24;7.87;;;7.07;;
7941;SDS011;4016;50.758;7.150;2023-10-19T20:35:24;8.13;;;6.50;;
7941;SDS011;4016;50.758;7.150;2023-10-19T20:40:26;8.00;;;7.20;;
7941;SDS011;4016;50.758;7.150;2023-10-19T20:45:30;10.50;;;8.20;;
7941;SDS011;4016;50.758;7.150;2023-10-19T20:50:31;9.87;;;8.13;;
7941;SDS011;4016;50.758;7.150;2023-10-19T20:55:31;12.50;;;9.63;;
7941;SDS011;4016;50.758;7.150;2023-10-19T21:00:33;10.67;;;9.40;;
7941;SDS011;4016;50.758;7.150;2023-10-19T21:05:33;11.60;;;9.93;;
7941;SDS011;4016;50.758;7.150;2023-10-19T21:10:34;11.07;;;9.70;;
7941;SDS011;4016;50.758;7.150;2023-10-19T21:15:34;10.23;;;9.17;;
7941;SDS011;4016;50.758;7.150;2023-10-19T21:20:35;11.67;;;10.10;;
7941;SDS011;4016;50.758;7.150;2023-10-19T21:25:35;13.17;;;10.07;;
7941;SDS011;4016;50.758;7.150;2023-10-19T21:30:35;13.30;;;10.77;;
7941;SDS011;4016;50.758;7.150;2023-10-19T21:35:36;12.07;;;10.57;;
7941;SDS011;4016;50.758;7.150;2023-10-19T21:40:42;13.27;;;10.70;;
7941;SDS011;4016;50.758;7.150;2023-10-19T21:45:43;13.50;;;10.47;;
7941;SDS011;4016;50.758;7.150;2023-10-19T21:50:43;12.97;;;9.80;;
7941;SDS011;4016;50.758;7.150;2023-10-19T21:55:45;10.77;;;9.67;;
7941;SDS011;4016;50.758;7.150;2023-10-19T22:00:45;8.30;;;7.40;;
7941;SDS011;4016;50.758;7.150;2023-10-19T22:06:04;7.10;;;6.40;;
7941;SDS011;4016;50.758;7.150;2023-10-19T22:11:05;8.17;;;6.37;;
7941;SDS011;4016;50.758;7.150;2023-10-19T22:16:06;6.57;;;5.60;;
7941;SDS011;4016;50.758;7.150;2023-10-19T22:21:07;5.80;;;5.27;;
7941;SDS011;4016;50.758;7.150;2023-10-19T22:26:08;5.77;;;5.17;;
7941;SDS011;4016;50.758;7.150;2023-10-19T22:31:08;5.53;;;4.93;;
7941;SDS011;4016;50.758;7.150;2023-10-19T22:36:09;6.17;;;4.97;;
7941;SDS011;4016;50.758;7.150;2023-10-19T22:41:10;6.07;;;5.47;;
7941;SDS011;4016;50.758;7.150;2023-10-19T22:46:10;5.87;;;5.20;;
7941;SDS011;4016;50.758;7.150;2023-10-19T22:51:11;6.27;;;5.67;;
7941;SDS011;4016;50.758;7.150;2023-10-19T22:56:11;5.67;;;5.17;;
7941;SDS011;4016;50.758;7.150;2023-10-19T23:01:11;6.17;;;5.57;;
7941;SDS011;4016;50.758;7.150;2023-10-19T23:06:13;5.40;;;4.90;;
7941;SDS011;4016;50.758;7.150;2023-10-19T23:11:13;5.63;;;5.13;;
7941;SDS011;4016;50.758;7.150;2023-10-19T23:16:15;7.00;;;5.60;;
7941;SDS011;4016;50.758;7.150;2023-10-19T23:21:16;6.00;;;5.40;;
7941;SDS011;4016;50.758;7.150;2023-10-19T23:26:17;6.77;;;6.07;;
7941;SDS011;4016;50.758;7.150;2023-10-19T23:31:20;7.60;;;6.83;;
7941;SDS011;4016;50.758;7.150;2023-10-19T23:36:24;8.90;;;7.77;;
7941;SDS011;4016;50.758;7.150;2023-10-19T23:41:25;7.60;;;6.77;;
7941;SDS011;4016;50.758;7.150;2023-10-19T23:46:25;7.77;;;6.97;;
7941;SDS011;4016;50.758;7.150;2023-10-19T23:51:26;7.03;;;6.40;;
7941;SDS011;4016;50.758;7.150;2023-10-19T23:56:30;9.67;;;7.00;;
